Main page
METAR-TAF:

METAR-TAF

Airports :

Tartu, Estonia

Tartu Airport

latitude: 58-18N, longitude: 026-44E, elevation: 59 m

Current weather observation

The report was made 39 minutes ago, at 15:50 UTC
Wind 6 kt from the Northeast
Temperature -12°C
Humidity 72%
Pressure 1027 hPa
Visibility 10 km or more
no clouds below 1500 m and no cumulonimbus

METAR: EETU 231550Z 05006KT CAVOK M12/M16 Q1027

Time: 18:29 (16:29 UTC)

Forecast

The report was made 25 hours and 29 minutes ago, at 15:00 UTC
Forecast valid from 22 at 16 UTC to 22 at 22 UTC
Wind 2 kt from variable directions
Visibility 10 km or more
Scattered clouds at a height of 1000 ft
Probability 40% :
Temporary
from 22 at 16 UTC to 22 at 19 UTC
Visibility: 2000 m
Broken clouds at a height of 400 ft
mist
Temporary
from 22 at 19 UTC to 22 at 22 UTC
Visibility: 1000 m
Broken clouds at a height of 300 ft
mist

TAF: EETU 221500Z 2216/2222 VRB02KT 9999 SCT010 PROB40 TEMPO 2216/2219 2000 BR BKN004 TEMPO 2219/2222 1000 BR BKN003

Weather observations and forecasts of more than 4000 airports (METAR and TAF reports).

The available stations are represented by yellow and red dots on the map.

Hover mouse over dot to see the name of the station.

Then click to see weather observations and forecasts.

To change the map : click on the green buttons with a black cross to zoom in, on the green button with a dash to zoom out, or on the green arrows for adjacent maps.


METAR-TAF: